sensor_id;sensor_type;location;lat;lon;timestamp;P1;durP1;ratioP1;P2;durP2;ratioP2
75456;SDS011;64036;48.266;14.192;2023-02-15T00:02:08;23.80;;;10.40;;
75456;SDS011;64036;48.266;14.192;2023-02-15T00:04:46;22.00;;;9.10;;
75456;SDS011;64036;48.266;14.192;2023-02-15T00:07:24;35.80;;;15.20;;
75456;SDS011;64036;48.266;14.192;2023-02-15T00:09:53;24.90;;;9.80;;
75456;SDS011;64036;48.266;14.192;2023-02-15T00:12:44;48.30;;;18.90;;
75456;SDS011;64036;48.266;14.192;2023-02-15T00:15:12;36.80;;;13.80;;
75456;SDS011;64036;48.266;14.192;2023-02-15T00:17:38;37.30;;;14.00;;
75456;SDS011;64036;48.266;14.192;2023-02-15T00:20:04;25.30;;;10.00;;
75456;SDS011;64036;48.266;14.192;2023-02-15T00:22:40;32.20;;;11.70;;
75456;SDS011;64036;48.266;14.192;2023-02-15T00:25:13;34.20;;;13.00;;
75456;SDS011;64036;48.266;14.192;2023-02-15T00:27:39;21.00;;;9.50;;
75456;SDS011;64036;48.266;14.192;2023-02-15T00:30:06;24.30;;;9.50;;
75456;SDS011;64036;48.266;14.192;2023-02-15T00:32:32;23.60;;;9.90;;
75456;SDS011;64036;48.266;14.192;2023-02-15T00:34:58;19.10;;;8.70;;
75456;SDS011;64036;48.266;14.192;2023-02-15T00:37:24;16.70;;;8.20;;
75456;SDS011;64036;48.266;14.192;2023-02-15T00:39:52;17.90;;;8.40;;
75456;SDS011;64036;48.266;14.192;2023-02-15T00:42:33;15.80;;;7.40;;
75456;SDS011;64036;48.266;14.192;2023-02-15T00:45:15;23.40;;;9.70;;
75456;SDS011;64036;48.266;14.192;2023-02-15T00:48:03;37.20;;;13.80;;
75456;SDS011;64036;48.266;14.192;2023-02-15T00:50:52;27.00;;;11.10;;
75456;SDS011;64036;48.266;14.192;2023-02-15T00:53:57;46.30;;;17.50;;
75456;SDS011;64036;48.266;14.192;2023-02-15T00:57:00;33.50;;;12.00;;
75456;SDS011;64036;48.266;14.192;2023-02-15T00:59:35;24.50;;;9.20;;
75456;SDS011;64036;48.266;14.192;2023-02-15T01:02:20;37.30;;;13.60;;
75456;SDS011;64036;48.266;14.192;2023-02-15T01:04:59;30.40;;;12.40;;
75456;SDS011;64036;48.266;14.192;2023-02-15T01:08:11;33.20;;;12.80;;
75456;SDS011;64036;48.266;14.192;2023-02-15T01:10:41;35.20;;;13.60;;
75456;SDS011;64036;48.266;14.192;2023-02-15T01:13:09;29.60;;;11.50;;
75456;SDS011;64036;48.266;14.192;2023-02-15T01:15:38;29.30;;;10.20;;
75456;SDS011;64036;48.266;14.192;2023-02-15T01:18:24;32.30;;;13.50;;
75456;SDS011;64036;48.266;14.192;2023-02-15T01:21:21;34.10;;;12.50;;
75456;SDS011;64036;48.266;14.192;2023-02-15T01:23:50;26.10;;;10.50;;
75456;SDS011;64036;48.266;14.192;2023-02-15T01:27:08;32.00;;;12.40;;
75456;SDS011;64036;48.266;14.192;2023-02-15T01:29:45;23.90;;;9.40;;
75456;SDS011;64036;48.266;14.192;2023-02-15T01:32:12;29.20;;;11.70;;
75456;SDS011;64036;48.266;14.192;2023-02-15T01:40:40;30.10;;;11.60;;
75456;SDS011;64036;48.266;14.192;2023-02-15T01:43:49;22.90;;;8.80;;
75456;SDS011;64036;48.266;14.192;2023-02-15T01:46:36;20.40;;;7.40;;
75456;SDS011;64036;48.266;14.192;2023-02-15T01:49:35;24.80;;;9.80;;
75456;SDS011;64036;48.266;14.192;2023-02-15T01:52:07;22.00;;;9.20;;
75456;SDS011;64036;48.266;14.192;2023-02-15T01:54:37;23.40;;;8.80;;
75456;SDS011;64036;48.266;14.192;2023-02-15T01:57:25;17.10;;;6.30;;
75456;SDS011;64036;48.266;14.192;2023-02-15T02:00:10;16.50;;;6.50;;
75456;SDS011;64036;48.266;14.192;2023-02-15T02:02:51;18.30;;;7.40;;
75456;SDS011;64036;48.266;14.192;2023-02-15T02:05:58;13.90;;;5.70;;
75456;SDS011;64036;48.266;14.192;2023-02-15T02:08:41;20.70;;;8.30;;
75456;SDS011;64036;48.266;14.192;2023-02-15T02:11:14;18.00;;;7.70;;
75456;SDS011;64036;48.266;14.192;2023-02-15T02:13:44;20.60;;;7.70;;
75456;SDS011;64036;48.266;14.192;2023-02-15T02:16:33;23.90;;;9.70;;
75456;SDS011;64036;48.266;14.192;2023-02-15T02:20:15;17.10;;;7.30;;
75456;SDS011;64036;48.266;14.192;2023-02-15T02:23:40;18.30;;;7.50;;
75456;SDS011;64036;48.266;14.192;2023-02-15T02:35:36;17.20;;;6.90;;
75456;SDS011;64036;48.266;14.192;2023-02-15T02:42:55;14.50;;;5.50;;
75456;SDS011;64036;48.266;14.192;2023-02-15T02:45:53;17.40;;;6.90;;
75456;SDS011;64036;48.266;14.192;2023-02-15T02:49:07;20.00;;;7.50;;
75456;SDS011;64036;48.266;14.192;2023-02-15T02:55:50;16.80;;;6.50;;
75456;SDS011;64036;48.266;14.192;2023-02-15T02:59:16;24.50;;;9.20;;
75456;SDS011;64036;48.266;14.192;2023-02-15T03:02:20;16.00;;;6.60;;
75456;SDS011;64036;48.266;14.192;2023-02-15T03:05:09;19.00;;;7.50;;
75456;SDS011;64036;48.266;14.192;2023-02-15T03:08:08;20.30;;;7.40;;
75456;SDS011;64036;48.266;14.192;2023-02-15T03:11:00;24.90;;;9.90;;
75456;SDS011;64036;48.266;14.192;2023-02-15T03:13:28;24.50;;;9.80;;
75456;SDS011;64036;48.266;14.192;2023-02-15T03:16:09;21.80;;;8.30;;
75456;SDS011;64036;48.266;14.192;2023-02-15T03:20:00;25.80;;;9.60;;
75456;SDS011;64036;48.266;14.192;2023-02-15T03:22:20;26.20;;;9.90;;
75456;SDS011;64036;48.266;14.192;2023-02-15T03:24:58;18.00;;;7.10;;
75456;SDS011;64036;48.266;14.192;2023-02-15T03:27:33;20.80;;;8.50;;
75456;SDS011;64036;48.266;14.192;2023-02-15T03:30:20;23.60;;;8.00;;
75456;SDS011;64036;48.266;14.192;2023-02-15T03:32:50;26.10;;;10.60;;
75456;SDS011;64036;48.266;14.192;2023-02-15T03:35:23;25.60;;;10.20;;
75456;SDS011;64036;48.266;14.192;2023-02-15T03:37:54;25.90;;;9.90;;
75456;SDS011;64036;48.266;14.192;2023-02-15T03:40:36;27.40;;;10.10;;
75456;SDS011;64036;48.266;14.192;2023-02-15T03:43:24;27.00;;;9.20;;
75456;SDS011;64036;48.266;14.192;2023-02-15T03:49:14;19.80;;;7.90;;
75456;SDS011;64036;48.266;14.192;2023-02-15T03:51:50;22.00;;;8.50;;
75456;SDS011;64036;48.266;14.192;2023-02-15T03:57:29;21.10;;;8.00;;
75456;SDS011;64036;48.266;14.192;2023-02-15T04:04:33;28.10;;;10.20;;
75456;SDS011;64036;48.266;14.192;2023-02-15T04:07:09;22.90;;;9.10;;
75456;SDS011;64036;48.266;14.192;2023-02-15T04:10:21;18.10;;;6.90;;
75456;SDS011;64036;48.266;14.192;2023-02-15T04:20:19;17.50;;;6.90;;
75456;SDS011;64036;48.266;14.192;2023-02-15T04:23:17;24.20;;;8.50;;
75456;SDS011;64036;48.266;14.192;2023-02-15T04:26:22;18.30;;;6.50;;
75456;SDS011;64036;48.266;14.192;2023-02-15T04:28:51;22.50;;;8.80;;
75456;SDS011;64036;48.266;14.192;2023-02-15T04:31:19;27.80;;;10.10;;
75456;SDS011;64036;48.266;14.192;2023-02-15T04:34:00;16.50;;;7.40;;
75456;SDS011;64036;48.266;14.192;2023-02-15T04:37:00;20.80;;;8.40;;
75456;SDS011;64036;48.266;14.192;2023-02-15T04:39:25;28.10;;;10.10;;
75456;SDS011;64036;48.266;14.192;2023-02-15T04:42:03;22.30;;;9.10;;
75456;SDS011;64036;48.266;14.192;2023-02-15T04:44:40;25.60;;;9.50;;
75456;SDS011;64036;48.266;14.192;2023-02-15T04:47:16;21.90;;;9.00;;
75456;SDS011;64036;48.266;14.192;2023-02-15T04:49:53;21.90;;;8.50;;
75456;SDS011;64036;48.266;14.192;2023-02-15T04:52:39;23.10;;;8.10;;
75456;SDS011;64036;48.266;14.192;2023-02-15T04:55:11;18.20;;;7.30;;
75456;SDS011;64036;48.266;14.192;2023-02-15T05:00:54;20.80;;;8.80;;
75456;SDS011;64036;48.266;14.192;2023-02-15T05:03:32;28.20;;;10.20;;
75456;SDS011;64036;48.266;14.192;2023-02-15T05:06:12;23.70;;;8.80;;
75456;SDS011;64036;48.266;14.192;2023-02-15T05:08:38;19.20;;;7.60;;
75456;SDS011;64036;48.266;14.192;2023-02-15T05:11:15;31.70;;;11.40;;
75456;SDS011;64036;48.266;14.192;2023-02-15T05:13:51;29.50;;;10.90;;
75456;SDS011;64036;48.266;14.192;2023-02-15T05:16:17;29.50;;;11.00;;
75456;SDS011;64036;48.266;14.192;2023-02-15T05:18:55;19.80;;;6.90;;
75456;SDS011;64036;48.266;14.192;2023-02-15T05:21:25;19.80;;;8.30;;
75456;SDS011;64036;48.266;14.192;2023-02-15T05:23:51;23.60;;;8.00;;
75456;SDS011;64036;48.266;14.192;2023-02-15T05:26:19;19.90;;;6.40;;
75456;SDS011;64036;48.266;14.192;2023-02-15T05:29:05;28.10;;;10.70;;
75456;SDS011;64036;48.266;14.192;2023-02-15T05:31:32;28.50;;;11.20;;
75456;SDS011;64036;48.266;14.192;2023-02-15T05:33:59;21.90;;;8.70;;
75456;SDS011;64036;48.266;14.192;2023-02-15T05:36:25;22.90;;;8.40;;
75456;SDS011;64036;48.266;14.192;2023-02-15T05:38:50;23.20;;;8.70;;
75456;SDS011;64036;48.266;14.192;2023-02-15T05:41:16;22.00;;;8.40;;
75456;SDS011;64036;48.266;14.192;2023-02-15T05:43:57;28.10;;;10.30;;
75456;SDS011;64036;48.266;14.192;2023-02-15T05:46:23;25.70;;;10.20;;
75456;SDS011;64036;48.266;14.192;2023-02-15T05:48:59;20.80;;;8.10;;
75456;SDS011;64036;48.266;14.192;2023-02-15T05:51:28;29.90;;;10.10;;
75456;SDS011;64036;48.266;14.192;2023-02-15T05:54:02;15.70;;;7.00;;
75456;SDS011;64036;48.266;14.192;2023-02-15T05:56:33;26.70;;;10.20;;
75456;SDS011;64036;48.266;14.192;2023-02-15T05:58:59;24.70;;;10.00;;
75456;SDS011;64036;48.266;14.192;2023-02-15T06:01:45;28.20;;;10.90;;
75456;SDS011;64036;48.266;14.192;2023-02-15T06:04:24;29.20;;;10.70;;
75456;SDS011;64036;48.266;14.192;2023-02-15T06:06:53;27.20;;;10.80;;
75456;SDS011;64036;48.266;14.192;2023-02-15T06:09:19;29.80;;;11.30;;
75456;SDS011;64036;48.266;14.192;2023-02-15T06:11:47;32.20;;;11.10;;
75456;SDS011;64036;48.266;14.192;2023-02-15T06:14:13;19.90;;;8.20;;
75456;SDS011;64036;48.266;14.192;2023-02-15T06:16:39;27.30;;;8.70;;
75456;SDS011;64036;48.266;14.192;2023-02-15T06:19:07;23.70;;;9.00;;
75456;SDS011;64036;48.266;14.192;2023-02-15T06:21:33;28.10;;;10.60;;
75456;SDS011;64036;48.266;14.192;2023-02-15T06:23:59;30.20;;;10.70;;
75456;SDS011;64036;48.266;14.192;2023-02-15T06:26:30;27.50;;;10.50;;
75456;SDS011;64036;48.266;14.192;2023-02-15T06:28:56;29.70;;;11.60;;
75456;SDS011;64036;48.266;14.192;2023-02-15T06:31:34;21.90;;;8.10;;
75456;SDS011;64036;48.266;14.192;2023-02-15T06:34:00;29.90;;;11.60;;
75456;SDS011;64036;48.266;14.192;2023-02-15T06:36:29;33.40;;;13.50;;
75456;SDS011;64036;48.266;14.192;2023-02-15T06:38:56;32.40;;;14.00;;
75456;SDS011;64036;48.266;14.192;2023-02-15T06:41:22;29.70;;;10.80;;
75456;SDS011;64036;48.266;14.192;2023-02-15T06:43:57;37.90;;;11.90;;
75456;SDS011;64036;48.266;14.192;2023-02-15T06:46:42;18.80;;;7.10;;
75456;SDS011;64036;48.266;14.192;2023-02-15T06:49:16;26.30;;;10.10;;
75456;SDS011;64036;48.266;14.192;2023-02-15T06:51:49;30.10;;;11.30;;
75456;SDS011;64036;48.266;14.192;2023-02-15T06:54:41;26.40;;;10.10;;
75456;SDS011;64036;48.266;14.192;2023-02-15T07:00:27;22.10;;;8.40;;
75456;SDS011;64036;48.266;14.192;2023-02-15T07:05:43;32.50;;;12.50;;
75456;SDS011;64036;48.266;14.192;2023-02-15T07:08:33;30.70;;;11.50;;
75456;SDS011;64036;48.266;14.192;2023-02-15T07:11:00;29.30;;;13.40;;
75456;SDS011;64036;48.266;14.192;2023-02-15T07:13:47;36.90;;;13.60;;
75456;SDS011;64036;48.266;14.192;2023-02-15T07:16:48;37.00;;;14.90;;
75456;SDS011;64036;48.266;14.192;2023-02-15T07:22:24;33.30;;;13.60;;
75456;SDS011;64036;48.266;14.192;2023-02-15T07:28:05;37.10;;;14.30;;
75456;SDS011;64036;48.266;14.192;2023-02-15T07:30:31;35.60;;;14.30;;
75456;SDS011;64036;48.266;14.192;2023-02-15T07:33:08;30.90;;;12.90;;
75456;SDS011;64036;48.266;14.192;2023-02-15T07:36:01;27.90;;;10.70;;
75456;SDS011;64036;48.266;14.192;2023-02-15T07:38:33;28.40;;;11.40;;
75456;SDS011;64036;48.266;14.192;2023-02-15T07:41:13;31.00;;;11.80;;
75456;SDS011;64036;48.266;14.192;2023-02-15T07:46:40;25.50;;;9.80;;
75456;SDS011;64036;48.266;14.192;2023-02-15T07:49:14;27.60;;;9.70;;
75456;SDS011;64036;48.266;14.192;2023-02-15T07:51:47;28.50;;;12.10;;
75456;SDS011;64036;48.266;14.192;2023-02-15T07:54:13;32.50;;;12.80;;
75456;SDS011;64036;48.266;14.192;2023-02-15T07:56:39;30.70;;;12.60;;
75456;SDS011;64036;48.266;14.192;2023-02-15T07:59:10;28.50;;;12.40;;
75456;SDS011;64036;48.266;14.192;2023-02-15T08:01:37;32.20;;;12.70;;
75456;SDS011;64036;48.266;14.192;2023-02-15T08:04:05;25.50;;;10.40;;
75456;SDS011;64036;48.266;14.192;2023-02-15T08:06:43;26.10;;;11.40;;
75456;SDS011;64036;48.266;14.192;2023-02-15T08:09:09;29.00;;;10.80;;
75456;SDS011;64036;48.266;14.192;2023-02-15T08:11:36;22.60;;;9.60;;
75456;SDS011;64036;48.266;14.192;2023-02-15T08:14:05;20.50;;;7.90;;
75456;SDS011;64036;48.266;14.192;2023-02-15T08:16:53;24.20;;;10.40;;
75456;SDS011;64036;48.266;14.192;2023-02-15T08:19:35;28.50;;;12.30;;
75456;SDS011;64036;48.266;14.192;2023-02-15T08:22:01;22.60;;;10.10;;
75456;SDS011;64036;48.266;14.192;2023-02-15T08:24:36;20.30;;;8.50;;
75456;SDS011;64036;48.266;14.192;2023-02-15T08:27:11;23.60;;;10.20;;
75456;SDS011;64036;48.266;14.192;2023-02-15T08:29:53;23.40;;;9.90;;
75456;SDS011;64036;48.266;14.192;2023-02-15T08:32:19;21.80;;;8.60;;
75456;SDS011;64036;48.266;14.192;2023-02-15T08:34:45;23.40;;;8.80;;
75456;SDS011;64036;48.266;14.192;2023-02-15T08:37:34;25.90;;;9.50;;
75456;SDS011;64036;48.266;14.192;2023-02-15T08:40:09;24.30;;;9.70;;
75456;SDS011;64036;48.266;14.192;2023-02-15T08:42:45;23.30;;;8.90;;
75456;SDS011;64036;48.266;14.192;2023-02-15T08:45:21;22.80;;;9.00;;
75456;SDS011;64036;48.266;14.192;2023-02-15T08:48:03;24.50;;;9.80;;
75456;SDS011;64036;48.266;14.192;2023-02-15T08:50:37;23.30;;;9.30;;
75456;SDS011;64036;48.266;14.192;2023-02-15T08:53:03;19.90;;;8.20;;
75456;SDS011;64036;48.266;14.192;2023-02-15T08:55:37;26.50;;;11.50;;
75456;SDS011;64036;48.266;14.192;2023-02-15T08:58:19;34.20;;;13.50;;
75456;SDS011;64036;48.266;14.192;2023-02-15T09:00:50;31.50;;;12.10;;
75456;SDS011;64036;48.266;14.192;2023-02-15T09:03:19;30.30;;;11.90;;
75456;SDS011;64036;48.266;14.192;2023-02-15T09:08:23;24.90;;;10.00;;
75456;SDS011;64036;48.266;14.192;2023-02-15T09:11:08;22.80;;;9.10;;
75456;SDS011;64036;48.266;14.192;2023-02-15T09:13:35;26.40;;;11.10;;
75456;SDS011;64036;48.266;14.192;2023-02-15T09:16:04;21.70;;;9.20;;
75456;SDS011;64036;48.266;14.192;2023-02-15T09:18:33;26.90;;;12.00;;
75456;SDS011;64036;48.266;14.192;2023-02-15T09:21:09;34.20;;;13.60;;
75456;SDS011;64036;48.266;14.192;2023-02-15T09:23:41;33.50;;;13.10;;
75456;SDS011;64036;48.266;14.192;2023-02-15T09:26:17;32.30;;;12.60;;
75456;SDS011;64036;48.266;14.192;2023-02-15T09:28:50;34.10;;;12.80;;
75456;SDS011;64036;48.266;14.192;2023-02-15T09:31:27;18.00;;;7.50;;
75456;SDS011;64036;48.266;14.192;2023-02-15T09:33:54;22.50;;;9.30;;
75456;SDS011;64036;48.266;14.192;2023-02-15T09:36:48;25.10;;;11.70;;
75456;SDS011;64036;48.266;14.192;2023-02-15T09:39:25;24.50;;;9.80;;
75456;SDS011;64036;48.266;14.192;2023-02-15T09:45:31;30.10;;;11.60;;
75456;SDS011;64036;48.266;14.192;2023-02-15T09:51:51;31.30;;;11.40;;
75456;SDS011;64036;48.266;14.192;2023-02-15T09:55:07;34.50;;;13.90;;
75456;SDS011;64036;48.266;14.192;2023-02-15T10:21:01;26.00;;;10.00;;
75456;SDS011;64036;48.266;14.192;2023-02-15T10:24:37;37.10;;;13.20;;
75456;SDS011;64036;48.266;14.192;2023-02-15T10:27:18;23.10;;;8.60;;
75456;SDS011;64036;48.266;14.192;2023-02-15T10:30:18;32.50;;;13.50;;
75456;SDS011;64036;48.266;14.192;2023-02-15T10:33:12;25.90;;;10.50;;
75456;SDS011;64036;48.266;14.192;2023-02-15T10:39:11;27.40;;;9.80;;
75456;SDS011;64036;48.266;14.192;2023-02-15T10:46:17;28.40;;;12.30;;
75456;SDS011;64036;48.266;14.192;2023-02-15T10:55:58;33.30;;;12.20;;
75456;SDS011;64036;48.266;14.192;2023-02-15T10:59:29;29.60;;;10.90;;
75456;SDS011;64036;48.266;14.192;2023-02-15T11:06:07;24.90;;;10.20;;
75456;SDS011;64036;48.266;14.192;2023-02-15T11:09:01;34.20;;;13.50;;
75456;SDS011;64036;48.266;14.192;2023-02-15T11:11:45;28.50;;;11.70;;
75456;SDS011;64036;48.266;14.192;2023-02-15T11:21:59;23.40;;;9.40;;
75456;SDS011;64036;48.266;14.192;2023-02-15T11:24:47;29.90;;;12.80;;
75456;SDS011;64036;48.266;14.192;2023-02-15T11:27:26;29.80;;;11.70;;
75456;SDS011;64036;48.266;14.192;2023-02-15T11:30:09;26.60;;;11.20;;
75456;SDS011;64036;48.266;14.192;2023-02-15T11:32:44;30.60;;;11.90;;
75456;SDS011;64036;48.266;14.192;2023-02-15T11:35:41;29.40;;;11.90;;
75456;SDS011;64036;48.266;14.192;2023-02-15T11:38:28;20.00;;;8.90;;
75456;SDS011;64036;48.266;14.192;2023-02-15T11:41:14;22.90;;;8.90;;
75456;SDS011;64036;48.266;14.192;2023-02-15T11:43:54;24.60;;;10.30;;
75456;SDS011;64036;48.266;14.192;2023-02-15T11:46:35;26.50;;;11.10;;
75456;SDS011;64036;48.266;14.192;2023-02-15T11:49:24;26.80;;;10.80;;
75456;SDS011;64036;48.266;14.192;2023-02-15T11:54:49;26.80;;;10.70;;
75456;SDS011;64036;48.266;14.192;2023-02-15T11:57:37;24.60;;;10.80;;
75456;SDS011;64036;48.266;14.192;2023-02-15T12:03:59;27.70;;;11.10;;
75456;SDS011;64036;48.266;14.192;2023-02-15T12:06:28;29.20;;;11.40;;
75456;SDS011;64036;48.266;14.192;2023-02-15T12:11:40;27.30;;;11.90;;
75456;SDS011;64036;48.266;14.192;2023-02-15T12:14:11;23.10;;;9.30;;
75456;SDS011;64036;48.266;14.192;2023-02-15T12:16:51;26.10;;;10.60;;
75456;SDS011;64036;48.266;14.192;2023-02-15T12:22:01;23.20;;;10.20;;
75456;SDS011;64036;48.266;14.192;2023-02-15T12:24:37;30.20;;;12.10;;
75456;SDS011;64036;48.266;14.192;2023-02-15T12:27:15;31.00;;;13.60;;
75456;SDS011;64036;48.266;14.192;2023-02-15T12:29:48;22.40;;;9.70;;
75456;SDS011;64036;48.266;14.192;2023-02-15T12:32:19;28.70;;;11.80;;
75456;SDS011;64036;48.266;14.192;2023-02-15T12:35:14;27.50;;;11.10;;
75456;SDS011;64036;48.266;14.192;2023-02-15T12:38:00;33.10;;;12.90;;
75456;SDS011;64036;48.266;14.192;2023-02-15T12:40:30;30.40;;;12.80;;
75456;SDS011;64036;48.266;14.192;2023-02-15T12:42:57;28.80;;;12.30;;
75456;SDS011;64036;48.266;14.192;2023-02-15T12:45:27;28.00;;;11.40;;
75456;SDS011;64036;48.266;14.192;2023-02-15T12:51:08;34.60;;;14.40;;
75456;SDS011;64036;48.266;14.192;2023-02-15T12:53:55;33.90;;;14.60;;
75456;SDS011;64036;48.266;14.192;2023-02-15T12:56:29;31.70;;;13.50;;
75456;SDS011;64036;48.266;14.192;2023-02-15T13:01:41;21.60;;;9.80;;
75456;SDS011;64036;48.266;14.192;2023-02-15T13:04:28;27.10;;;11.00;;
75456;SDS011;64036;48.266;14.192;2023-02-15T13:07:09;22.50;;;9.40;;
75456;SDS011;64036;48.266;14.192;2023-02-15T13:09:38;26.10;;;11.50;;
75456;SDS011;64036;48.266;14.192;2023-02-15T13:12:25;27.00;;;11.20;;
75456;SDS011;64036;48.266;14.192;2023-02-15T13:15:03;30.20;;;12.50;;
75456;SDS011;64036;48.266;14.192;2023-02-15T13:17:50;30.00;;;12.60;;
75456;SDS011;64036;48.266;14.192;2023-02-15T13:20:28;32.30;;;12.30;;
75456;SDS011;64036;48.266;14.192;2023-02-15T13:22:58;32.10;;;13.60;;
75456;SDS011;64036;48.266;14.192;2023-02-15T13:25:30;31.40;;;13.70;;
75456;SDS011;64036;48.266;14.192;2023-02-15T13:28:28;23.50;;;10.00;;
75456;SDS011;64036;48.266;14.192;2023-02-15T13:31:02;25.20;;;10.60;;
75456;SDS011;64036;48.266;14.192;2023-02-15T13:33:34;27.20;;;11.00;;
75456;SDS011;64036;48.266;14.192;2023-02-15T13:39:46;30.00;;;12.70;;
75456;SDS011;64036;48.266;14.192;2023-02-15T13:42:37;26.90;;;11.30;;
75456;SDS011;64036;48.266;14.192;2023-02-15T13:51:41;37.10;;;15.30;;
75456;SDS011;64036;48.266;14.192;2023-02-15T14:05:57;23.80;;;9.50;;
75456;SDS011;64036;48.266;14.192;2023-02-15T14:18:44;28.50;;;12.10;;
75456;SDS011;64036;48.266;14.192;2023-02-15T14:30:39;42.00;;;16.30;;
75456;SDS011;64036;48.266;14.192;2023-02-15T14:33:39;37.10;;;14.40;;
75456;SDS011;64036;48.266;14.192;2023-02-15T14:36:18;33.80;;;13.90;;
75456;SDS011;64036;48.266;14.192;2023-02-15T14:39:02;27.90;;;12.10;;
75456;SDS011;64036;48.266;14.192;2023-02-15T14:42:34;22.20;;;8.90;;
75456;SDS011;64036;48.266;14.192;2023-02-15T14:45:30;28.90;;;11.10;;
75456;SDS011;64036;48.266;14.192;2023-02-15T14:50:41;34.70;;;14.50;;
75456;SDS011;64036;48.266;14.192;2023-02-15T14:58:36;37.70;;;14.00;;
75456;SDS011;64036;48.266;14.192;2023-02-15T15:01:07;37.70;;;14.60;;
75456;SDS011;64036;48.266;14.192;2023-02-15T15:03:35;40.00;;;14.90;;
75456;SDS011;64036;48.266;14.192;2023-02-15T15:06:27;39.40;;;15.30;;
75456;SDS011;64036;48.266;14.192;2023-02-15T15:09:20;39.30;;;15.40;;
75456;SDS011;64036;48.266;14.192;2023-02-15T15:11:52;36.40;;;14.50;;
75456;SDS011;64036;48.266;14.192;2023-02-15T15:14:38;40.10;;;15.90;;
75456;SDS011;64036;48.266;14.192;2023-02-15T15:20:04;33.90;;;14.00;;
75456;SDS011;64036;48.266;14.192;2023-02-15T15:22:45;25.90;;;10.90;;
75456;SDS011;64036;48.266;14.192;2023-02-15T15:28:14;37.30;;;14.90;;
75456;SDS011;64036;48.266;14.192;2023-02-15T15:31:56;35.40;;;15.70;;
75456;SDS011;64036;48.266;14.192;2023-02-15T15:35:05;25.70;;;11.50;;
75456;SDS011;64036;48.266;14.192;2023-02-15T15:48:01;37.20;;;13.90;;
75456;SDS011;64036;48.266;14.192;2023-02-15T15:50:50;46.80;;;18.60;;
75456;SDS011;64036;48.266;14.192;2023-02-15T15:53:45;45.60;;;18.20;;
75456;SDS011;64036;48.266;14.192;2023-02-15T15:56:20;44.10;;;17.20;;
75456;SDS011;64036;48.266;14.192;2023-02-15T15:59:17;39.20;;;16.40;;
75456;SDS011;64036;48.266;14.192;2023-02-15T16:01:44;33.60;;;13.40;;
75456;SDS011;64036;48.266;14.192;2023-02-15T16:04:25;52.10;;;18.90;;
75456;SDS011;64036;48.266;14.192;2023-02-15T16:07:18;42.10;;;17.80;;
75456;SDS011;64036;48.266;14.192;2023-02-15T16:10:27;54.10;;;19.90;;
75456;SDS011;64036;48.266;14.192;2023-02-15T16:13:05;40.80;;;16.10;;
75456;SDS011;64036;48.266;14.192;2023-02-15T16:15:44;47.80;;;18.30;;
75456;SDS011;64036;48.266;14.192;2023-02-15T16:18:16;38.30;;;15.90;;
75456;SDS011;64036;48.266;14.192;2023-02-15T16:21:03;41.00;;;15.50;;
75456;SDS011;64036;48.266;14.192;2023-02-15T16:23:59;42.70;;;16.00;;
75456;SDS011;64036;48.266;14.192;2023-02-15T16:30:40;43.70;;;16.90;;
75456;SDS011;64036;48.266;14.192;2023-02-15T16:33:38;42.30;;;16.50;;
75456;SDS011;64036;48.266;14.192;2023-02-15T16:36:26;32.70;;;14.80;;
75456;SDS011;64036;48.266;14.192;2023-02-15T16:39:12;38.30;;;15.90;;
75456;SDS011;64036;48.266;14.192;2023-02-15T16:41:49;37.80;;;14.30;;
75456;SDS011;64036;48.266;14.192;2023-02-15T16:44:23;38.90;;;15.70;;
75456;SDS011;64036;48.266;14.192;2023-02-15T16:49:38;53.30;;;19.70;;
75456;SDS011;64036;48.266;14.192;2023-02-15T16:52:24;40.40;;;17.10;;
75456;SDS011;64036;48.266;14.192;2023-02-15T16:55:01;36.40;;;14.60;;
75456;SDS011;64036;48.266;14.192;2023-02-15T16:57:42;45.90;;;16.50;;
75456;SDS011;64036;48.266;14.192;2023-02-15T17:00:19;43.50;;;17.50;;
75456;SDS011;64036;48.266;14.192;2023-02-15T17:03:00;40.60;;;16.70;;
75456;SDS011;64036;48.266;14.192;2023-02-15T17:08:29;38.30;;;13.40;;
75456;SDS011;64036;48.266;14.192;2023-02-15T17:11:33;26.70;;;10.50;;
75456;SDS011;64036;48.266;14.192;2023-02-15T17:17:14;31.80;;;11.70;;
75456;SDS011;64036;48.266;14.192;2023-02-15T17:19:52;29.70;;;11.90;;
75456;SDS011;64036;48.266;14.192;2023-02-15T17:22:25;35.70;;;13.10;;
75456;SDS011;64036;48.266;14.192;2023-02-15T17:25:23;32.50;;;12.40;;
75456;SDS011;64036;48.266;14.192;2023-02-15T17:28:19;33.30;;;13.10;;
75456;SDS011;64036;48.266;14.192;2023-02-15T17:31:08;32.90;;;12.50;;
75456;SDS011;64036;48.266;14.192;2023-02-15T17:34:16;32.80;;;13.40;;
75456;SDS011;64036;48.266;14.192;2023-02-15T17:41:48;32.80;;;12.70;;
75456;SDS011;64036;48.266;14.192;2023-02-15T17:44:25;33.10;;;13.10;;
75456;SDS011;64036;48.266;14.192;2023-02-15T17:47:34;32.50;;;11.90;;
75456;SDS011;64036;48.266;14.192;2023-02-15T17:53:41;37.30;;;14.30;;
75456;SDS011;64036;48.266;14.192;2023-02-15T17:56:31;29.40;;;11.70;;
75456;SDS011;64036;48.266;14.192;2023-02-15T18:02:08;35.00;;;13.60;;
75456;SDS011;64036;48.266;14.192;2023-02-15T18:14:57;24.10;;;9.60;;
75456;SDS011;64036;48.266;14.192;2023-02-15T18:17:42;31.90;;;11.80;;
75456;SDS011;64036;48.266;14.192;2023-02-15T18:20:23;27.10;;;10.90;;
75456;SDS011;64036;48.266;14.192;2023-02-15T18:23:23;36.30;;;13.50;;
75456;SDS011;64036;48.266;14.192;2023-02-15T18:25:49;23.00;;;8.90;;
75456;SDS011;64036;48.266;14.192;2023-02-15T18:28:14;34.20;;;13.30;;
75456;SDS011;64036;48.266;14.192;2023-02-15T18:30:43;32.80;;;13.30;;
75456;SDS011;64036;48.266;14.192;2023-02-15T18:36:33;31.60;;;11.70;;
75456;SDS011;64036;48.266;14.192;2023-02-15T18:39:54;31.80;;;12.00;;
75456;SDS011;64036;48.266;14.192;2023-02-15T18:42:23;32.40;;;12.60;;
75456;SDS011;64036;48.266;14.192;2023-02-15T18:45:13;29.90;;;9.70;;
75456;SDS011;64036;48.266;14.192;2023-02-15T18:47:44;34.30;;;12.50;;
75456;SDS011;64036;48.266;14.192;2023-02-15T18:50:13;38.30;;;13.60;;
75456;SDS011;64036;48.266;14.192;2023-02-15T18:52:40;32.80;;;12.00;;
75456;SDS011;64036;48.266;14.192;2023-02-15T18:55:19;30.10;;;12.10;;
75456;SDS011;64036;48.266;14.192;2023-02-15T18:57:50;29.20;;;11.70;;
75456;SDS011;64036;48.266;14.192;2023-02-15T19:00:23;33.30;;;13.00;;
75456;SDS011;64036;48.266;14.192;2023-02-15T19:02:50;36.20;;;14.30;;
75456;SDS011;64036;48.266;14.192;2023-02-15T19:05:16;31.30;;;11.80;;
75456;SDS011;64036;48.266;14.192;2023-02-15T19:07:44;28.90;;;12.10;;
75456;SDS011;64036;48.266;14.192;2023-02-15T19:10:27;37.50;;;14.20;;
75456;SDS011;64036;48.266;14.192;2023-02-15T19:15:24;22.70;;;10.10;;
75456;SDS011;64036;48.266;14.192;2023-02-15T19:17:53;24.60;;;9.40;;
75456;SDS011;64036;48.266;14.192;2023-02-15T19:23:15;34.60;;;13.30;;
75456;SDS011;64036;48.266;14.192;2023-02-15T19:25:44;31.40;;;12.40;;
75456;SDS011;64036;48.266;14.192;2023-02-15T19:28:28;26.00;;;9.60;;
75456;SDS011;64036;48.266;14.192;2023-02-15T19:31:07;38.10;;;14.10;;
75456;SDS011;64036;48.266;14.192;2023-02-15T19:33:35;35.80;;;13.90;;